createdAt,value
2019-06-15T00:04:09.222Z,93738.59
2019-06-15T00:14:42.676Z,93731.02
2019-06-15T00:25:16.119Z,93722.22
2019-06-15T00:35:49.658Z,93724.31
2019-06-15T00:46:23.306Z,93724.31
2019-06-15T00:56:56.233Z,93725.69
2019-06-15T01:07:28.953Z,93713.13
2019-06-15T01:18:02.619Z,93702.70
2019-06-15T01:28:35.915Z,93699.03
2019-06-15T01:39:09.354Z,93692.55
2019-06-15T01:49:43.079Z,93705.16
2019-06-15T02:00:20.831Z,93707.53
2019-06-15T02:10:55.404Z,93716.77
2019-06-15T02:21:28.876Z,93711.11
2019-06-15T02:32:01.688Z,93709.64
2019-06-15T02:42:35.074Z,93706.40
2019-06-15T02:53:08.610Z,93707.61
2019-06-15T03:03:42.461Z,93711.59
2019-06-15T03:14:16.074Z,93721.93
2019-06-15T03:24:49.771Z,93727.02
2019-06-15T03:35:23.351Z,93724.89
2019-06-15T03:45:56.916Z,93719.67
2019-06-15T03:56:30.327Z,93720.81
2019-06-15T04:07:03.986Z,93721.72
2019-06-15T04:17:36.585Z,93734.30
2019-06-15T04:28:09.360Z,93736.90
2019-06-15T04:38:43.019Z,93751.66
2019-06-15T04:49:16.677Z,93753.73
2019-06-15T04:59:50.159Z,93753.67
2019-06-15T05:10:23.425Z,93752.88
2019-06-15T05:20:56.855Z,93740.16
2019-06-15T05:31:30.477Z,93740.06
2019-06-15T05:42:04.091Z,93744.31
2019-06-15T05:52:37.537Z,93742.88
2019-06-15T06:03:11.282Z,93737.74
2019-06-15T06:13:44.909Z,93730.52
2019-06-15T06:24:18.532Z,93736.55
2019-06-15T06:34:52.028Z,93721.77
2019-06-15T06:45:24.954Z,93712.37
2019-06-15T06:55:58.479Z,93709.55
2019-06-15T07:06:31.170Z,93715.75
2019-06-15T07:17:04.792Z,93720.73
2019-06-15T07:27:38.217Z,93720.10
2019-06-15T07:38:11.781Z,93723.23
2019-06-15T07:48:45.229Z,93713.79
2019-06-15T07:59:18.801Z,93707.78
2019-06-15T08:09:52.486Z,93710.86
2019-06-15T08:20:26.837Z,93715.17
2019-06-15T08:31:03.869Z,93695.93
2019-06-15T08:41:37.542Z,93706.05
2019-06-15T08:52:10.961Z,93696.38
2019-06-15T09:02:44.355Z,93701.84
2019-06-15T09:13:17.862Z,93695.20
2019-06-15T09:23:50.576Z,93689.16
2019-06-15T09:34:23.219Z,93685.16
2019-06-15T09:44:56.780Z,93674.58
2019-06-15T09:55:30.481Z,93669.23
2019-06-15T10:06:05.599Z,93660.86
2019-06-15T10:16:38.412Z,93654.47
2019-06-15T10:27:11.961Z,93646.34
2019-06-15T10:37:45.437Z,93647.44
2019-06-15T10:48:18.728Z,93632.65
2019-06-15T10:58:51.470Z,93620.24
2019-06-15T11:09:25.034Z,93618.14
2019-06-15T11:19:58.725Z,93595.14
2019-06-15T11:30:32.219Z,93583.22
2019-06-15T11:41:05.151Z,93567.11
2019-06-15T11:51:38.798Z,93540.19
2019-06-15T12:02:12.457Z,93541.58
2019-06-15T12:12:45.909Z,93540.03
2019-06-15T12:23:19.367Z,93526.01
2019-06-15T12:33:52.246Z,93523.45
2019-06-15T12:44:26.047Z,93517.67
2019-06-15T12:54:59.726Z,93518.55
2019-06-15T13:05:32.458Z,93526.38
2019-06-15T13:16:06.027Z,93516.14
2019-06-15T13:26:39.863Z,93494.23
2019-06-15T13:37:13.291Z,93499.97
2019-06-15T13:47:46.907Z,93497.94
2019-06-15T13:58:21.668Z,93499.89
2019-06-15T14:08:55.313Z,93500.28
2019-06-15T14:19:28.874Z,93498.69
2019-06-15T14:30:02.301Z,93489.23
2019-06-15T14:40:35.786Z,93477.51
2019-06-15T14:51:09.386Z,93475.11
2019-06-15T15:01:43.086Z,93479.66
2019-06-15T15:12:16.645Z,93493.05
2019-06-15T15:22:50.029Z,93477.20
2019-06-15T15:33:22.938Z,93488.32
2019-06-15T15:43:55.628Z,93490.41
2019-06-15T15:54:29.288Z,93480.92
2019-06-15T16:05:03.028Z,93495.62
2019-06-15T16:15:37.288Z,93492.40
2019-06-15T16:26:11.027Z,93500.13
2019-06-15T16:36:46.752Z,93501.69
2019-06-15T16:47:20.016Z,93496.64
2019-06-15T16:57:53.341Z,93496.89
2019-06-15T17:08:26.205Z,93479.66
2019-06-15T17:18:59.560Z,93483.50
2019-06-15T17:29:33.328Z,93487.91
2019-06-15T17:40:06.875Z,93490.27
2019-06-15T17:50:57.191Z,93500.14
2019-06-15T18:01:31.806Z,93482.59
2019-06-15T18:12:06.544Z,93489.80
2019-06-15T18:22:40.346Z,93485.34
2019-06-15T18:33:16.130Z,93490.20
2019-06-15T18:43:49.608Z,93499.55
2019-06-15T18:54:23.380Z,93508.38
2019-06-15T19:04:56.920Z,93516.45
2019-06-15T19:15:30.383Z,93525.75
2019-06-15T19:26:06.278Z,93523.92
2019-06-15T19:36:39.673Z,93530.88
2019-06-15T19:47:16.176Z,93532.21
2019-06-15T19:57:49.969Z,93533.97
2019-06-15T20:08:22.813Z,93530.20
2019-06-15T20:18:56.387Z,93542.00
2019-06-15T20:29:29.582Z,93531.41
2019-06-15T20:40:03.153Z,93532.14
2019-06-15T20:50:36.499Z,93530.13
2019-06-15T21:01:10.075Z,93520.56
2019-06-15T21:11:43.834Z,93517.78
2019-06-15T21:22:17.472Z,93517.89
2019-06-15T21:32:50.985Z,93520.84
2019-06-15T21:43:26.422Z,93521.91
2019-06-15T21:53:59.275Z,93512.61
2019-06-15T22:04:32.738Z,93507.81
2019-06-15T22:15:06.894Z,93507.63
2019-06-15T22:25:39.961Z,93500.95
2019-06-15T22:36:22.194Z,93487.66
2019-06-15T22:46:49.102Z,93472.62
2019-06-15T22:57:22.853Z,93455.27
2019-06-15T23:07:56.297Z,93444.23
2019-06-15T23:18:29.880Z,93437.11
2019-06-15T23:29:03.529Z,93455.14
2019-06-15T23:39:37.189Z,93467.44
2019-06-15T23:50:10.833Z,93446.53
